createdAt,value
2023-01-27T00:01:22.932Z,5.72
2023-01-27T00:03:52.415Z,5.15
2023-01-27T00:06:20.838Z,5.75
2023-01-27T00:08:50.597Z,7.72
2023-01-27T00:11:36.518Z,8.32
2023-01-27T00:14:04.952Z,8.18
2023-01-27T00:16:33.267Z,8.43
2023-01-27T00:19:01.571Z,6.72
2023-01-27T00:21:47.333Z,7.20
2023-01-27T00:24:34.544Z,8.95
2023-01-27T00:27:03.192Z,8.73
2023-01-27T00:29:31.561Z,6.15
2023-01-27T00:32:16.951Z,8.50
2023-01-27T00:34:45.299Z,8.25
2023-01-27T00:37:13.671Z,6.60
2023-01-27T00:39:43.762Z,5.95
2023-01-27T00:42:12.156Z,6.03
2023-01-27T00:45:00.405Z,5.70
2023-01-27T00:47:28.757Z,5.57
2023-01-27T00:49:57.065Z,7.07
2023-01-27T00:52:25.529Z,5.20
2023-01-27T00:54:55.349Z,5.90
2023-01-27T00:57:23.678Z,12.05
2023-01-27T00:59:52.127Z,6.57
2023-01-27T01:02:20.439Z,7.53
2023-01-27T01:04:48.812Z,7.25
2023-01-27T01:07:17.104Z,6.72
2023-01-27T01:09:45.745Z,8.57
2023-01-27T01:12:15.465Z,7.15
2023-01-27T01:14:43.845Z,5.93
2023-01-27T01:17:12.098Z,6.95
2023-01-27T01:19:40.487Z,6.18
2023-01-27T01:22:08.787Z,7.45
2023-01-27T01:24:37.113Z,6.65
2023-01-27T01:27:05.655Z,5.95
2023-01-27T01:29:35.608Z,7.35
2023-01-27T01:32:03.981Z,6.50
2023-01-27T01:34:32.226Z,6.70
2023-01-27T01:37:00.572Z,5.30
2023-01-27T01:39:29.422Z,6.85
2023-01-27T01:41:57.744Z,4.78
2023-01-27T01:44:28.027Z,4.93
2023-01-27T01:46:58.000Z,6.70
2023-01-27T01:49:31.038Z,6.70
2023-01-27T01:52:02.769Z,5.13
2023-01-27T01:54:35.393Z,4.78
2023-01-27T01:57:07.906Z,11.93
2023-01-27T01:59:40.372Z,6.22
2023-01-27T02:02:13.751Z,6.03
2023-01-27T02:04:46.947Z,7.28
2023-01-27T02:07:21.578Z,6.28
2023-01-27T02:09:50.196Z,7.38
2023-01-27T02:12:18.498Z,7.88
2023-01-27T02:14:46.895Z,7.85
2023-01-27T02:17:17.376Z,9.02
2023-01-27T02:19:55.068Z,8.38
2023-01-27T02:22:29.539Z,6.65
2023-01-27T02:25:06.533Z,9.95
2023-01-27T02:27:36.246Z,10.88
2023-01-27T02:30:04.630Z,12.52
2023-01-27T02:32:34.958Z,13.68
2023-01-27T02:35:03.938Z,7.65
2023-01-27T02:37:34.271Z,11.98
2023-01-27T02:40:04.433Z,16.23
2023-01-27T02:42:32.826Z,10.50
2023-01-27T02:45:02.567Z,17.95
2023-01-27T02:47:30.907Z,20.08
2023-01-27T02:49:59.463Z,10.13
2023-01-27T02:52:27.811Z,10.80
2023-01-27T02:54:56.144Z,11.20
2023-01-27T02:57:24.440Z,13.18
2023-01-27T02:59:52.899Z,8.35
2023-01-27T03:02:23.135Z,6.65
2023-01-27T03:04:51.577Z,6.88
2023-01-27T03:07:19.874Z,6.85
2023-01-27T03:09:48.157Z,18.80
2023-01-27T03:12:22.542Z,15.32
2023-01-27T03:15:10.056Z,7.80
2023-01-27T03:17:57.643Z,9.52
2023-01-27T03:20:26.236Z,19.52
2023-01-27T03:22:54.632Z,17.20
2023-01-27T03:25:23.174Z,29.00
2023-01-27T03:27:51.541Z,32.08
2023-01-27T03:30:20.196Z,23.48
2023-01-27T03:32:50.055Z,19.35
2023-01-27T03:35:18.951Z,14.57
2023-01-27T03:38:05.158Z,25.50
2023-01-27T03:40:50.763Z,21.27
2023-01-27T03:43:36.642Z,34.33
2023-01-27T03:46:20.617Z,44.75
2023-01-27T03:48:55.362Z,37.40
2023-01-27T03:51:26.129Z,69.07
2023-01-27T03:53:54.989Z,30.10
2023-01-27T03:56:24.256Z,30.30
2023-01-27T03:58:52.584Z,18.67
2023-01-27T04:01:22.659Z,24.67
2023-01-27T04:04:09.161Z,41.83
2023-01-27T04:06:54.505Z,50.35
2023-01-27T04:09:26.001Z,44.17
2023-01-27T04:11:56.589Z,34.03
2023-01-27T04:14:26.857Z,19.48
2023-01-27T04:16:57.304Z,38.03
2023-01-27T04:19:26.331Z,12.13
2023-01-27T04:21:56.582Z,102.82
2023-01-27T04:24:25.079Z,21.92
2023-01-27T04:26:56.114Z,70.22
2023-01-27T04:29:25.835Z,36.28
2023-01-27T04:31:54.620Z,50.55
2023-01-27T04:34:23.292Z,44.58
2023-01-27T04:36:52.413Z,42.03
2023-01-27T04:39:22.118Z,28.10
2023-01-27T04:41:51.374Z,35.13
2023-01-27T04:44:21.460Z,48.22
2023-01-27T04:46:50.415Z,22.73
2023-01-27T04:49:19.294Z,32.90
2023-01-27T04:51:47.728Z,32.10
2023-01-27T04:54:16.163Z,89.88
2023-01-27T04:56:59.574Z,52.40
2023-01-27T04:59:28.166Z,45.85
2023-01-27T05:01:56.709Z,18.73
2023-01-27T05:04:26.516Z,31.17
2023-01-27T05:06:55.301Z,17.20
2023-01-27T05:09:23.933Z,7.22
2023-01-27T05:11:53.661Z,9.93
2023-01-27T05:14:23.751Z,9.35
2023-01-27T05:16:52.463Z,14.43
2023-01-27T05:19:21.095Z,7.65
2023-01-27T05:21:49.463Z,7.78
2023-01-27T05:24:18.091Z,6.63
2023-01-27T05:26:46.542Z,4.97
2023-01-27T05:29:16.239Z,5.68
2023-01-27T05:31:44.588Z,4.82
2023-01-27T05:34:12.935Z,6.50
2023-01-27T05:36:41.263Z,4.35
2023-01-27T05:39:12.310Z,9.05
2023-01-27T05:41:40.747Z,7.07
2023-01-27T05:44:12.554Z,5.50
2023-01-27T05:46:43.605Z,7.70
2023-01-27T05:49:12.200Z,4.28
2023-01-27T05:51:41.266Z,3.67
2023-01-27T05:54:10.410Z,5.13
2023-01-27T05:56:39.337Z,4.43
2023-01-27T05:59:07.992Z,4.30
2023-01-27T06:01:37.695Z,4.20
2023-01-27T06:04:07.950Z,3.38
2023-01-27T06:06:36.325Z,4.18
2023-01-27T06:09:05.136Z,3.85
2023-01-27T06:11:33.556Z,11.40
2023-01-27T06:14:01.882Z,4.07
2023-01-27T06:16:30.358Z,6.95
2023-01-27T06:18:58.816Z,5.30
2023-01-27T06:21:28.634Z,3.17
2023-01-27T06:23:58.390Z,3.80
2023-01-27T06:26:26.827Z,2.45
2023-01-27T06:28:56.962Z,2.88
2023-01-27T06:31:26.110Z,3.45
2023-01-27T06:33:54.552Z,3.85
2023-01-27T06:36:23.561Z,2.40
2023-01-27T06:38:53.389Z,2.55
2023-01-27T06:41:21.750Z,2.70
2023-01-27T06:43:50.140Z,4.63
2023-01-27T06:46:18.539Z,4.07
2023-01-27T06:48:46.910Z,3.40
2023-01-27T06:51:15.691Z,3.80
2023-01-27T06:53:44.056Z,4.95
2023-01-27T06:56:15.679Z,4.00
2023-01-27T06:58:44.675Z,3.85
2023-01-27T07:01:13.184Z,4.85
2023-01-27T07:03:43.620Z,3.42
2023-01-27T07:06:13.003Z,4.05
2023-01-27T07:08:41.539Z,3.13
2023-01-27T07:11:09.909Z,3.50
2023-01-27T07:13:39.722Z,5.32
2023-01-27T07:16:08.752Z,3.13
2023-01-27T07:18:37.225Z,5.50
2023-01-27T07:21:06.327Z,2.65
2023-01-27T07:23:34.897Z,5.15
2023-01-27T07:26:09.877Z,3.17
2023-01-27T07:28:45.601Z,2.78
2023-01-27T07:31:14.142Z,5.05
2023-01-27T07:33:42.573Z,3.40
2023-01-27T07:36:11.519Z,2.47
2023-01-27T07:38:40.454Z,3.28
2023-01-27T07:41:09.204Z,3.22
2023-01-27T07:43:37.595Z,5.93
2023-01-27T07:46:07.359Z,3.58
2023-01-27T07:48:35.912Z,5.72
2023-01-27T07:51:04.405Z,3.38
2023-01-27T07:53:32.808Z,2.83
2023-01-27T07:56:01.605Z,3.33
2023-01-27T07:58:29.908Z,3.95
2023-01-27T08:00:58.301Z,2.97
2023-01-27T08:03:28.649Z,4.43
2023-01-27T08:05:56.982Z,2.90
2023-01-27T08:08:25.534Z,3.03
2023-01-27T08:10:54.889Z,4.93
2023-01-27T08:13:23.320Z,3.30
2023-01-27T08:15:57.344Z,4.70
2023-01-27T08:18:26.007Z,4.63
2023-01-27T08:20:56.493Z,3.10
2023-01-27T08:23:25.103Z,4.35
2023-01-27T08:25:54.439Z,3.90
2023-01-27T08:28:24.239Z,3.17
2023-01-27T08:30:53.361Z,3.45
2023-01-27T08:33:23.038Z,5.97
2023-01-27T08:35:51.955Z,3.97
2023-01-27T08:38:22.017Z,5.07
2023-01-27T08:40:50.530Z,2.83
2023-01-27T08:43:19.869Z,3.40
2023-01-27T08:45:48.479Z,2.85
2023-01-27T08:48:16.833Z,3.53
2023-01-27T08:50:45.162Z,2.47
2023-01-27T08:53:13.602Z,4.63
2023-01-27T08:55:43.576Z,4.38
2023-01-27T08:58:11.966Z,2.92
2023-01-27T09:00:40.417Z,4.25
2023-01-27T09:03:08.736Z,3.85
2023-01-27T09:05:38.116Z,5.03
2023-01-27T09:08:06.878Z,3.35
2023-01-27T09:10:39.257Z,3.42
2023-01-27T09:13:09.267Z,5.70
2023-01-27T09:15:38.258Z,6.40
2023-01-27T09:18:07.285Z,6.35
2023-01-27T09:20:37.294Z,5.95
2023-01-27T09:23:05.895Z,10.18
2023-01-27T09:25:34.249Z,5.47
2023-01-27T09:28:02.618Z,4.93
2023-01-27T09:30:32.431Z,8.98
2023-01-27T09:33:01.741Z,9.18
2023-01-27T09:35:37.821Z,10.15
2023-01-27T09:38:07.394Z,9.52
2023-01-27T09:40:48.904Z,9.30
2023-01-27T09:43:39.542Z,6.25
2023-01-27T09:46:24.990Z,6.50
2023-01-27T09:49:15.725Z,6.55
2023-01-27T09:51:59.194Z,5.95
2023-01-27T09:54:54.428Z,6.15
2023-01-27T09:57:35.401Z,5.38
2023-01-27T10:00:23.457Z,5.97
2023-01-27T10:03:18.148Z,4.78
2023-01-27T10:06:24.894Z,8.23
2023-01-27T10:09:24.843Z,4.95
2023-01-27T10:12:00.999Z,5.68
2023-01-27T10:14:40.882Z,4.13
2023-01-27T10:17:22.124Z,5.35
2023-01-27T10:20:08.875Z,9.27
2023-01-27T10:22:48.248Z,6.50
2023-01-27T10:25:26.713Z,4.43
2023-01-27T10:27:58.902Z,5.25
2023-01-27T10:30:35.178Z,4.68
2023-01-27T10:33:17.766Z,4.85
2023-01-27T10:35:53.765Z,6.13
2023-01-27T10:38:35.318Z,6.05
2023-01-27T10:41:12.368Z,7.05
2023-01-27T10:43:52.829Z,5.07
2023-01-27T10:46:32.678Z,4.13
2023-01-27T10:49:09.097Z,6.72
2023-01-27T10:51:43.392Z,4.65
2023-01-27T10:54:17.668Z,5.00
2023-01-27T10:56:49.529Z,3.95
2023-01-27T10:59:24.963Z,4.07
2023-01-27T11:01:57.692Z,3.25
2023-01-27T11:04:34.625Z,3.40
2023-01-27T11:07:05.562Z,3.78
2023-01-27T11:09:37.344Z,4.00
2023-01-27T11:12:11.097Z,2.88
2023-01-27T11:14:47.007Z,3.05
2023-01-27T11:17:21.542Z,4.97
2023-01-27T11:20:00.993Z,3.10
2023-01-27T11:22:38.494Z,2.97
2023-01-27T11:25:18.084Z,2.78
2023-01-27T11:28:01.619Z,3.40
2023-01-27T11:30:36.916Z,4.25
2023-01-27T11:33:13.110Z,5.13
2023-01-27T11:35:41.552Z,2.22
2023-01-27T11:38:17.904Z,1.92
2023-01-27T11:40:50.149Z,3.67
2023-01-27T11:43:21.467Z,5.88
2023-01-27T11:45:51.602Z,3.80
2023-01-27T11:48:23.419Z,2.97
2023-01-27T11:50:52.318Z,2.28
2023-01-27T11:53:27.854Z,2.13
2023-01-27T11:56:00.729Z,2.00
2023-01-27T11:58:34.033Z,2.13
2023-01-27T12:01:05.622Z,2.15
2023-01-27T12:03:49.995Z,1.63
2023-01-27T12:06:27.915Z,3.70
2023-01-27T12:08:57.715Z,3.25
2023-01-27T12:11:27.935Z,2.00
2023-01-27T12:13:59.101Z,2.38
2023-01-27T12:16:43.799Z,2.75
2023-01-27T12:19:25.340Z,2.47
2023-01-27T12:21:58.164Z,1.95
2023-01-27T12:24:32.095Z,2.28
2023-01-27T12:27:01.949Z,1.98
2023-01-27T12:29:42.898Z,3.92
2023-01-27T12:32:18.078Z,2.22
2023-01-27T12:34:50.573Z,1.30
2023-01-27T12:37:23.849Z,3.40
2023-01-27T12:40:00.600Z,4.40
2023-01-27T12:42:40.541Z,2.38
2023-01-27T12:45:35.202Z,2.33
2023-01-27T12:48:17.952Z,2.60
2023-01-27T12:50:56.859Z,3.45
2023-01-27T12:53:27.934Z,2.50
2023-01-27T12:56:03.166Z,3.08
2023-01-27T12:58:37.710Z,2.85
2023-01-27T13:01:09.329Z,1.87
2023-01-27T13:03:43.573Z,3.13
2023-01-27T13:06:17.496Z,3.15
2023-01-27T13:08:46.541Z,5.40
2023-01-27T13:11:34.597Z,4.80
2023-01-27T13:14:03.060Z,2.97
2023-01-27T13:16:32.368Z,1.73
2023-01-27T13:19:02.535Z,2.97
2023-01-27T13:21:36.722Z,2.38
2023-01-27T13:24:11.907Z,5.38
2023-01-27T13:26:43.137Z,4.68
2023-01-27T13:29:17.281Z,2.80
2023-01-27T13:31:52.151Z,1.58
2023-01-27T13:34:29.920Z,1.95
2023-01-27T13:37:03.766Z,2.75
2023-01-27T13:39:49.387Z,2.22
2023-01-27T13:42:24.992Z,1.98
2023-01-27T13:45:00.591Z,6.00
2023-01-27T13:47:35.310Z,2.03
2023-01-27T13:50:11.093Z,1.55
2023-01-27T13:52:39.720Z,2.65
2023-01-27T13:55:13.700Z,2.72
2023-01-27T13:57:59.238Z,3.03
2023-01-27T14:00:37.288Z,2.03
2023-01-27T14:03:38.296Z,2.00
2023-01-27T14:06:19.764Z,2.95
2023-01-27T14:09:03.543Z,2.60
2023-01-27T14:11:39.922Z,1.65
2023-01-27T14:14:23.404Z,3.00
2023-01-27T14:17:07.707Z,1.17
2023-01-27T14:19:51.254Z,1.73
2023-01-27T14:22:28.858Z,0.70
2023-01-27T14:25:02.756Z,0.68
2023-01-27T14:27:36.849Z,1.95
2023-01-27T14:30:16.376Z,2.17
2023-01-27T14:32:52.140Z,1.10
2023-01-27T14:35:30.343Z,1.38
2023-01-27T14:38:10.222Z,3.10
2023-01-27T14:40:51.103Z,1.67
2023-01-27T14:43:29.399Z,5.20
2023-01-27T14:46:06.486Z,2.92
2023-01-27T14:48:51.957Z,7.97
2023-01-27T14:51:31.539Z,3.67
2023-01-27T14:54:20.954Z,1.65
2023-01-27T14:57:06.035Z,1.80
2023-01-27T14:59:45.980Z,2.28
2023-01-27T15:02:31.181Z,1.77
2023-01-27T15:05:09.778Z,2.58
2023-01-27T15:07:45.530Z,1.60
2023-01-27T15:10:24.034Z,3.17
2023-01-27T15:13:31.881Z,2.97
2023-01-27T15:16:35.316Z,1.77
2023-01-27T15:19:36.074Z,2.72
2023-01-27T15:22:20.482Z,2.45
2023-01-27T15:25:07.902Z,3.05
2023-01-27T15:27:36.416Z,4.38
2023-01-27T15:30:09.674Z,2.63
2023-01-27T15:32:39.120Z,10.52
2023-01-27T15:35:35.135Z,3.47
2023-01-27T15:38:20.290Z,11.00
2023-01-27T15:41:04.945Z,5.78
2023-01-27T15:43:34.057Z,3.95
2023-01-27T15:46:23.842Z,3.42
2023-01-27T15:48:52.433Z,5.50
2023-01-27T15:51:23.127Z,4.80
2023-01-27T15:53:56.400Z,8.15
2023-01-27T15:56:48.869Z,6.60
2023-01-27T15:59:22.446Z,5.95
2023-01-27T16:02:01.178Z,3.08
2023-01-27T16:04:32.184Z,2.65
2023-01-27T16:07:05.863Z,3.05
2023-01-27T16:09:41.052Z,4.68
2023-01-27T16:12:32.195Z,5.75
2023-01-27T16:15:23.953Z,3.75
2023-01-27T16:18:01.448Z,5.53
2023-01-27T16:20:32.003Z,3.90
2023-01-27T16:23:07.070Z,7.80
2023-01-27T16:25:43.053Z,4.70
2023-01-27T16:28:19.311Z,5.25
2023-01-27T16:30:56.770Z,4.80
2023-01-27T16:33:29.627Z,4.70
2023-01-27T16:36:06.391Z,4.75
2023-01-27T16:38:40.223Z,3.83
2023-01-27T16:41:19.406Z,11.32
2023-01-27T16:43:52.754Z,7.13
2023-01-27T16:46:29.214Z,5.18
2023-01-27T16:48:57.784Z,3.90
2023-01-27T16:51:28.626Z,7.15
2023-01-27T16:54:00.446Z,5.68
2023-01-27T16:56:30.575Z,5.85
2023-01-27T16:59:05.523Z,5.90
2023-01-27T17:01:41.859Z,10.98
2023-01-27T17:04:20.176Z,6.82
2023-01-27T17:06:50.175Z,7.30
2023-01-27T17:09:25.809Z,7.43
2023-01-27T17:11:55.797Z,5.53
2023-01-27T17:14:32.100Z,7.22
2023-01-27T17:17:02.373Z,6.15
2023-01-27T17:19:34.244Z,5.80
2023-01-27T17:22:04.532Z,4.72
2023-01-27T17:24:37.484Z,6.68
2023-01-27T17:27:10.149Z,5.97
2023-01-27T17:29:40.533Z,4.43
2023-01-27T17:32:21.737Z,6.53
2023-01-27T17:34:52.058Z,4.05
2023-01-27T17:37:22.911Z,4.97
2023-01-27T17:39:56.902Z,2.83
2023-01-27T17:42:27.932Z,5.00
2023-01-27T17:44:57.149Z,3.75
2023-01-27T17:47:25.595Z,7.43
2023-01-27T17:49:54.370Z,12.90
2023-01-27T17:52:27.708Z,5.15
2023-01-27T17:55:06.171Z,6.40
2023-01-27T17:57:36.293Z,7.80
2023-01-27T18:00:09.897Z,8.00
2023-01-27T18:05:19.926Z,5.22
2023-01-27T18:07:48.861Z,9.88
2023-01-27T18:10:27.157Z,5.57
2023-01-27T18:12:55.729Z,4.35
2023-01-27T18:15:43.976Z,9.18
2023-01-27T18:18:25.100Z,8.32
2023-01-27T18:21:06.325Z,3.30
2023-01-27T18:23:37.500Z,4.90
2023-01-27T18:26:15.418Z,5.18
2023-01-27T18:28:45.945Z,17.35
2023-01-27T18:31:18.650Z,2.63
2023-01-27T18:33:48.292Z,13.23
2023-01-27T18:36:24.336Z,7.43
2023-01-27T18:38:53.407Z,3.78
2023-01-27T18:41:27.651Z,8.43
2023-01-27T18:43:56.652Z,8.57
2023-01-27T18:46:27.140Z,2.33
2023-01-27T18:48:59.734Z,2.33
2023-01-27T18:51:28.371Z,1.75
2023-01-27T18:53:57.152Z,2.83
2023-01-27T18:56:27.236Z,4.18
2023-01-27T18:58:55.676Z,6.00
2023-01-27T19:01:26.000Z,3.15
2023-01-27T19:03:57.546Z,5.28
2023-01-27T19:06:27.661Z,3.35
2023-01-27T19:08:56.731Z,2.40
2023-01-27T19:11:28.899Z,3.70
2023-01-27T19:13:57.382Z,3.78
2023-01-27T19:16:28.146Z,3.72
2023-01-27T19:18:56.931Z,2.05
2023-01-27T19:21:25.171Z,1.92
2023-01-27T19:23:53.949Z,2.22
2023-01-27T19:26:24.566Z,3.22
2023-01-27T19:28:57.352Z,3.15
2023-01-27T19:31:26.965Z,2.13
2023-01-27T19:33:56.859Z,1.40
2023-01-27T19:36:30.884Z,1.10
2023-01-27T19:39:03.212Z,1.10
2023-01-27T19:41:32.015Z,1.13
2023-01-27T19:44:02.710Z,1.98
2023-01-27T19:46:32.585Z,3.63
2023-01-27T19:49:01.184Z,6.90
2023-01-27T19:51:29.847Z,1.20
2023-01-27T19:53:59.092Z,5.47
2023-01-27T19:56:33.036Z,1.30
2023-01-27T19:59:02.777Z,1.70
2023-01-27T20:01:31.299Z,2.20
2023-01-27T20:03:59.883Z,2.08
2023-01-27T20:06:30.996Z,2.00
2023-01-27T20:09:04.088Z,2.42
2023-01-27T20:11:37.393Z,2.63
2023-01-27T20:14:09.765Z,8.90
2023-01-27T20:16:39.493Z,5.25
2023-01-27T20:19:09.614Z,3.28
2023-01-27T20:21:39.107Z,14.50
2023-01-27T20:24:10.078Z,3.35
2023-01-27T20:26:40.284Z,4.18
2023-01-27T20:29:11.683Z,3.90
2023-01-27T20:31:41.556Z,7.55
2023-01-27T20:34:11.458Z,3.83
2023-01-27T20:36:41.330Z,5.43
2023-01-27T20:39:11.116Z,18.75
2023-01-27T20:41:40.970Z,21.63
2023-01-27T20:44:14.684Z,9.48
2023-01-27T20:46:44.485Z,18.92
2023-01-27T20:49:14.057Z,248.40
2023-01-27T20:51:43.748Z,10.48
2023-01-27T20:54:14.615Z,71.45
2023-01-27T20:56:44.104Z,7.32
2023-01-27T20:59:15.780Z,8.20
2023-01-27T21:01:46.916Z,11.68
2023-01-27T21:04:16.665Z,6.88
2023-01-27T21:06:46.724Z,91.97
2023-01-27T21:09:17.342Z,194.55
2023-01-27T21:11:47.504Z,44.55
2023-01-27T21:14:19.810Z,69.88
2023-01-27T21:16:49.743Z,129.43
2023-01-27T21:19:19.613Z,99.82
2023-01-27T21:21:49.710Z,590.25
2023-01-27T21:24:19.636Z,169.70
2023-01-27T21:26:52.130Z,25.50
2023-01-27T21:29:25.380Z,28.10
2023-01-27T21:31:54.414Z,138.90
2023-01-27T21:34:24.269Z,246.77
2023-01-27T21:36:56.043Z,577.90
2023-01-27T21:39:25.452Z,510.05
2023-01-27T21:42:12.597Z,562.30
2023-01-27T21:45:13.710Z,410.98
2023-01-27T21:47:42.548Z,191.90
2023-01-27T21:50:15.122Z,128.27
2023-01-27T21:52:46.835Z,539.77
2023-01-27T21:55:18.444Z,187.75
2023-01-27T21:57:48.609Z,205.75
2023-01-27T22:00:21.581Z,91.15
2023-01-27T22:02:55.030Z,247.55
2023-01-27T22:05:23.669Z,186.70
2023-01-27T22:07:52.350Z,482.13
2023-01-27T22:10:22.695Z,113.55
2023-01-27T22:12:52.436Z,818.67
2023-01-27T22:15:22.455Z,204.95
2023-01-27T22:17:50.884Z,471.35
2023-01-27T22:20:20.065Z,344.67
2023-01-27T22:22:48.408Z,177.48
2023-01-27T22:25:17.863Z,221.80
2023-01-27T22:27:46.492Z,443.40
2023-01-27T22:30:16.299Z,239.63
2023-01-27T22:32:51.122Z,69.10
2023-01-27T22:35:20.004Z,325.35
2023-01-27T22:37:49.266Z,489.13
2023-01-27T22:40:18.396Z,227.30
2023-01-27T22:42:46.689Z,346.45
2023-01-27T22:45:15.455Z,407.55
2023-01-27T22:47:45.488Z,513.28
2023-01-27T22:50:14.008Z,202.23
2023-01-27T22:52:42.445Z,233.20
2023-01-27T22:55:13.871Z,97.25
2023-01-27T22:57:42.333Z,264.35
2023-01-27T23:00:11.972Z,276.17
2023-01-27T23:02:40.295Z,233.48
2023-01-27T23:05:10.655Z,406.77
2023-01-27T23:07:39.049Z,244.85
2023-01-27T23:10:08.451Z,420.20
2023-01-27T23:12:36.797Z,94.05
2023-01-27T23:15:05.866Z,564.97
2023-01-27T23:17:34.272Z,173.52
2023-01-27T23:20:02.733Z,377.08
2023-01-27T23:22:32.496Z,490.23
2023-01-27T23:25:00.794Z,579.22
2023-01-27T23:27:29.688Z,808.72
2023-01-27T23:29:58.086Z,531.75
2023-01-27T23:32:26.438Z,735.03
2023-01-27T23:34:54.825Z,497.15
2023-01-27T23:37:23.123Z,246.80
2023-01-27T23:39:52.924Z,641.92
2023-01-27T23:42:21.737Z,313.38
2023-01-27T23:44:50.179Z,678.33
2023-01-27T23:47:18.733Z,639.38
2023-01-27T23:49:47.415Z,463.70
2023-01-27T23:52:15.790Z,520.70
2023-01-27T23:54:44.105Z,546.53
2023-01-27T23:57:13.822Z,282.67
2023-01-27T23:59:42.560Z,380.50
